createdAt,value
2022-11-29T00:01:26.142Z,10.68
2022-11-29T00:03:59.702Z,10.58
2022-11-29T00:09:45.158Z,10.68
2022-11-29T00:12:18.290Z,10.67
2022-11-29T00:14:51.249Z,10.71
2022-11-29T00:17:25.498Z,10.55
2022-11-29T00:19:58.410Z,10.58
2022-11-29T00:22:31.141Z,10.69
2022-11-29T00:25:04.780Z,10.57
2022-11-29T00:27:37.531Z,10.63
2022-11-29T00:30:11.594Z,10.59
2022-11-29T00:32:45.799Z,10.47
2022-11-29T00:35:18.909Z,10.47
2022-11-29T00:37:51.741Z,10.57
2022-11-29T00:40:24.913Z,10.53
2022-11-29T00:42:57.789Z,10.50
2022-11-29T00:45:30.768Z,10.46
2022-11-29T00:48:05.277Z,10.56
2022-11-29T00:50:38.236Z,10.40
2022-11-29T00:53:11.003Z,10.42
2022-11-29T00:55:45.144Z,10.39
2022-11-29T00:58:18.420Z,10.35
2022-11-29T01:00:51.978Z,10.41
2022-11-29T01:03:26.796Z,10.41
2022-11-29T01:06:02.685Z,10.38
2022-11-29T01:08:36.059Z,10.32
2022-11-29T01:11:13.746Z,10.29
2022-11-29T01:13:47.224Z,10.22
2022-11-29T01:16:20.425Z,10.22
2022-11-29T01:18:55.023Z,10.21
2022-11-29T01:21:28.489Z,10.28
2022-11-29T01:24:03.658Z,10.17
2022-11-29T01:26:39.428Z,10.17
2022-11-29T01:29:14.109Z,10.26
2022-11-29T01:31:47.059Z,10.34
2022-11-29T01:34:21.547Z,10.23
2022-11-29T01:36:54.311Z,10.28
2022-11-29T01:39:27.285Z,10.24
2022-11-29T01:42:00.948Z,10.30
2022-11-29T01:45:03.825Z,10.23
2022-11-29T01:47:47.070Z,10.23
2022-11-29T01:50:21.592Z,10.26
2022-11-29T01:52:54.602Z,10.28
2022-11-29T01:55:27.530Z,10.32
2022-11-29T01:58:01.539Z,10.30
2022-11-29T02:00:34.667Z,10.25
2022-11-29T02:03:11.837Z,10.30
2022-11-29T02:05:50.358Z,10.37
2022-11-29T02:08:28.386Z,10.34
2022-11-29T02:11:20.142Z,10.30
2022-11-29T02:14:13.100Z,10.31
2022-11-29T02:16:56.857Z,10.22
2022-11-29T02:19:55.343Z,10.19
2022-11-29T02:22:43.986Z,10.22
2022-11-29T02:25:37.110Z,10.21
2022-11-29T02:28:42.975Z,10.18
2022-11-29T02:31:44.260Z,10.18
2022-11-29T02:34:44.613Z,10.17
2022-11-29T02:37:30.917Z,10.20
2022-11-29T02:40:33.616Z,10.12
2022-11-29T02:43:34.175Z,10.18
2022-11-29T02:46:22.182Z,10.10
2022-11-29T02:49:04.109Z,10.12
2022-11-29T02:51:44.164Z,10.17
2022-11-29T02:54:25.374Z,10.18
2022-11-29T02:57:03.385Z,10.19
2022-11-29T02:59:43.888Z,10.20
2022-11-29T03:02:24.467Z,10.15
2022-11-29T03:05:04.689Z,10.23
2022-11-29T03:07:45.856Z,10.27
2022-11-29T03:10:29.879Z,10.14
2022-11-29T03:13:08.169Z,10.20
2022-11-29T03:15:49.814Z,10.23
2022-11-29T03:18:35.518Z,10.23
2022-11-29T03:21:24.488Z,10.19
2022-11-29T03:24:06.196Z,10.18
2022-11-29T03:26:45.488Z,10.20
2022-11-29T03:29:28.366Z,10.21
2022-11-29T03:32:08.306Z,10.17
2022-11-29T03:34:57.411Z,10.14
2022-11-29T03:37:39.342Z,10.12
2022-11-29T03:40:20.716Z,10.10
2022-11-29T03:43:02.923Z,10.17
2022-11-29T03:45:44.816Z,10.16
2022-11-29T03:48:22.955Z,10.14
2022-11-29T03:51:00.728Z,10.16
2022-11-29T03:53:40.671Z,10.13
2022-11-29T03:56:37.817Z,10.19
2022-11-29T03:59:20.564Z,10.17
2022-11-29T04:02:14.155Z,10.22
2022-11-29T04:05:15.607Z,10.16
2022-11-29T04:08:03.012Z,10.17
2022-11-29T04:10:53.594Z,10.22
2022-11-29T04:13:47.684Z,10.23
2022-11-29T04:16:47.201Z,10.26
2022-11-29T04:19:40.839Z,10.30
2022-11-29T04:22:33.110Z,10.32
2022-11-29T04:25:32.828Z,10.29
2022-11-29T04:28:20.800Z,10.24
2022-11-29T04:31:08.403Z,10.22
2022-11-29T04:34:18.835Z,10.23
2022-11-29T04:37:11.777Z,10.27
2022-11-29T04:39:58.817Z,10.20
2022-11-29T04:42:56.577Z,10.27
2022-11-29T04:45:48.959Z,10.33
2022-11-29T04:48:43.938Z,10.22
2022-11-29T04:51:27.111Z,10.23
2022-11-29T04:54:07.210Z,10.22
2022-11-29T04:56:44.977Z,10.16
2022-11-29T04:59:25.998Z,10.22
2022-11-29T05:02:06.638Z,10.24
2022-11-29T05:04:52.607Z,10.24
2022-11-29T05:07:34.121Z,10.17
2022-11-29T05:10:23.821Z,10.20
2022-11-29T05:13:03.813Z,10.16
2022-11-29T05:15:53.619Z,10.17
2022-11-29T05:18:37.452Z,10.17
2022-11-29T05:21:20.666Z,10.20
2022-11-29T05:24:00.956Z,10.26
2022-11-29T05:26:42.378Z,10.23
2022-11-29T05:29:22.728Z,10.20
2022-11-29T05:32:10.845Z,10.19
2022-11-29T05:35:00.860Z,10.13
2022-11-29T05:37:44.646Z,10.18
2022-11-29T05:40:39.885Z,10.14
2022-11-29T05:43:26.623Z,10.15
2022-11-29T05:46:07.147Z,10.19
2022-11-29T05:48:48.776Z,10.12
2022-11-29T05:51:28.622Z,10.15
2022-11-29T05:54:13.004Z,10.15
2022-11-29T05:56:58.008Z,10.15
2022-11-29T05:59:32.391Z,10.08
2022-11-29T06:02:15.583Z,10.14
2022-11-29T06:05:06.641Z,10.16
2022-11-29T06:07:45.622Z,10.09
2022-11-29T06:10:24.252Z,10.14
2022-11-29T06:13:07.284Z,10.10
2022-11-29T06:16:16.877Z,10.04
2022-11-29T06:19:17.379Z,10.06
2022-11-29T06:22:00.733Z,10.19
2022-11-29T06:24:45.833Z,10.17
2022-11-29T06:27:37.246Z,10.12
2022-11-29T06:30:13.230Z,10.26
2022-11-29T06:32:53.475Z,10.02
2022-11-29T06:35:39.826Z,9.97
2022-11-29T06:38:23.199Z,10.02
2022-11-29T06:41:02.075Z,10.07
2022-11-29T06:43:37.534Z,10.00
2022-11-29T06:46:19.981Z,10.06
2022-11-29T06:49:02.340Z,9.91
2022-11-29T06:51:46.275Z,9.87
2022-11-29T06:54:32.050Z,9.87
2022-11-29T06:57:14.396Z,9.80
2022-11-29T07:00:02.513Z,9.83
2022-11-29T07:02:49.546Z,9.74
2022-11-29T07:05:26.792Z,9.83
2022-11-29T07:08:03.861Z,9.76
2022-11-29T07:10:40.901Z,9.79
2022-11-29T07:13:14.857Z,9.78
2022-11-29T07:16:00.632Z,9.84
2022-11-29T07:18:43.302Z,9.78
2022-11-29T07:21:26.711Z,9.76
2022-11-29T07:24:09.778Z,9.67
2022-11-29T07:26:56.492Z,9.72
2022-11-29T07:29:39.352Z,9.72
2022-11-29T07:32:21.983Z,9.63
2022-11-29T07:35:02.884Z,9.69
2022-11-29T07:37:41.043Z,9.68
2022-11-29T07:40:16.814Z,9.60
2022-11-29T07:43:02.385Z,9.64
2022-11-29T07:45:36.834Z,9.61
2022-11-29T07:48:12.262Z,9.65
2022-11-29T07:50:46.352Z,9.60
2022-11-29T07:53:21.690Z,9.67
2022-11-29T07:55:54.595Z,9.60
2022-11-29T07:58:27.143Z,9.53
2022-11-29T08:00:59.929Z,9.57
2022-11-29T08:03:35.540Z,9.57
2022-11-29T08:06:08.227Z,9.61
2022-11-29T08:08:44.202Z,9.69
2022-11-29T08:11:17.403Z,9.64
2022-11-29T08:13:51.423Z,9.54
2022-11-29T08:16:24.568Z,9.56
2022-11-29T08:18:58.973Z,9.53
2022-11-29T08:21:31.776Z,9.50
2022-11-29T08:24:04.676Z,9.46
2022-11-29T08:26:37.524Z,9.55
2022-11-29T08:29:10.325Z,9.52
2022-11-29T08:31:43.113Z,9.59
2022-11-29T08:34:17.510Z,9.56
2022-11-29T08:36:50.861Z,9.60
2022-11-29T08:39:24.180Z,9.51
2022-11-29T08:41:56.895Z,9.58
2022-11-29T08:44:29.750Z,9.48
2022-11-29T08:47:19.968Z,9.47
2022-11-29T08:50:03.323Z,9.50
2022-11-29T08:52:57.515Z,9.42
2022-11-29T08:55:33.424Z,9.54
2022-11-29T08:58:09.841Z,9.47
2022-11-29T09:00:46.046Z,9.53
2022-11-29T09:03:36.800Z,9.49
2022-11-29T09:06:13.441Z,9.50
2022-11-29T09:08:46.955Z,9.53
2022-11-29T09:11:25.992Z,9.62
2022-11-29T09:14:01.248Z,9.64
2022-11-29T09:16:37.642Z,9.64
2022-11-29T09:19:11.615Z,9.63
2022-11-29T09:21:45.813Z,9.64
2022-11-29T09:24:19.654Z,9.75
2022-11-29T09:26:52.448Z,9.76
2022-11-29T09:29:25.161Z,9.76
2022-11-29T09:31:58.111Z,9.71
2022-11-29T09:34:30.785Z,9.80
2022-11-29T09:37:06.170Z,9.79
2022-11-29T09:39:40.225Z,9.82
2022-11-29T09:42:44.866Z,9.80
2022-11-29T09:45:22.145Z,9.82
2022-11-29T09:48:23.028Z,9.86
2022-11-29T09:51:01.734Z,9.86
2022-11-29T09:53:46.248Z,9.89
2022-11-29T09:56:26.314Z,9.99
2022-11-29T09:59:04.722Z,9.95
2022-11-29T10:01:43.699Z,10.01
2022-11-29T10:04:20.553Z,10.09
2022-11-29T10:07:00.316Z,10.05
2022-11-29T10:09:39.985Z,10.08
2022-11-29T10:12:18.547Z,10.12
2022-11-29T10:14:56.469Z,10.10
2022-11-29T10:17:36.052Z,10.13
2022-11-29T10:20:15.925Z,10.16
2022-11-29T10:22:55.811Z,10.26
2022-11-29T10:25:34.264Z,10.28
2022-11-29T10:28:12.727Z,10.30
2022-11-29T10:30:46.234Z,10.55
2022-11-29T10:33:22.349Z,10.53
2022-11-29T10:35:58.166Z,10.66
2022-11-29T10:38:31.929Z,10.76
2022-11-29T10:41:12.237Z,10.85
2022-11-29T10:43:45.403Z,10.93
2022-11-29T10:46:29.885Z,10.93
2022-11-29T10:49:05.709Z,10.98
2022-11-29T10:51:39.166Z,10.94
2022-11-29T10:54:30.233Z,11.05
2022-11-29T10:57:13.851Z,11.15
2022-11-29T11:00:00.802Z,11.17
2022-11-29T11:02:34.541Z,11.13
2022-11-29T11:05:18.835Z,11.11
2022-11-29T11:07:58.610Z,11.12
2022-11-29T11:10:32.292Z,11.16
2022-11-29T11:13:08.347Z,11.14
2022-11-29T11:15:41.328Z,11.14
2022-11-29T11:18:22.172Z,11.22
2022-11-29T11:20:58.234Z,11.28
2022-11-29T11:23:32.649Z,11.31
2022-11-29T11:26:11.363Z,11.34
2022-11-29T11:28:52.270Z,11.33
2022-11-29T11:31:34.390Z,11.40
2022-11-29T11:34:26.907Z,11.41
2022-11-29T11:37:19.761Z,11.42
2022-11-29T11:39:55.938Z,11.48
2022-11-29T11:42:40.386Z,11.52
2022-11-29T11:45:33.946Z,11.55
2022-11-29T11:48:14.492Z,11.59
2022-11-29T11:50:52.975Z,11.60
2022-11-29T11:53:29.041Z,11.65
2022-11-29T11:56:03.743Z,11.71
2022-11-29T11:58:40.492Z,11.80
2022-11-29T12:01:27.266Z,11.84
2022-11-29T12:04:05.441Z,11.89
2022-11-29T12:06:46.210Z,12.00
2022-11-29T12:09:28.999Z,11.99
2022-11-29T12:12:11.926Z,12.04
2022-11-29T12:14:55.637Z,12.09
2022-11-29T12:17:36.207Z,12.11
2022-11-29T12:20:23.688Z,12.06
2022-11-29T12:23:10.122Z,12.14
2022-11-29T12:25:49.723Z,12.23
2022-11-29T12:28:26.112Z,12.20
2022-11-29T12:31:08.819Z,12.16
2022-11-29T12:33:50.959Z,12.23
2022-11-29T12:36:37.848Z,12.37
2022-11-29T12:39:25.401Z,12.36
2022-11-29T12:42:07.188Z,12.39
2022-11-29T12:44:47.700Z,12.38
2022-11-29T12:47:37.704Z,12.51
2022-11-29T12:50:27.441Z,12.47
2022-11-29T12:53:15.449Z,12.42
2022-11-29T12:55:55.685Z,12.43
2022-11-29T12:58:39.056Z,12.44
2022-11-29T13:01:25.469Z,12.47
2022-11-29T13:04:05.138Z,12.35
2022-11-29T13:06:49.058Z,12.29
2022-11-29T13:09:49.298Z,12.28
2022-11-29T13:12:29.408Z,12.25
2022-11-29T13:15:06.333Z,12.21
2022-11-29T13:17:46.808Z,12.24
2022-11-29T13:20:32.176Z,12.25
2022-11-29T13:23:20.762Z,12.22
2022-11-29T13:25:58.224Z,12.25
2022-11-29T13:28:34.867Z,12.21
2022-11-29T13:31:15.604Z,12.16
2022-11-29T13:34:08.793Z,12.27
2022-11-29T13:36:51.043Z,12.28
2022-11-29T13:39:36.095Z,12.25
2022-11-29T13:42:17.277Z,12.32
2022-11-29T13:44:57.676Z,12.27
2022-11-29T13:47:30.570Z,12.30
2022-11-29T13:50:05.671Z,12.43
2022-11-29T13:52:41.248Z,12.53
2022-11-29T13:55:29.164Z,12.53
2022-11-29T13:58:22.226Z,12.52
2022-11-29T14:01:00.214Z,12.42
2022-11-29T14:03:37.128Z,12.51
2022-11-29T14:06:21.120Z,12.61
2022-11-29T14:09:28.307Z,12.64
2022-11-29T14:12:20.080Z,12.60
2022-11-29T14:14:57.867Z,12.67
2022-11-29T14:17:37.140Z,12.65
2022-11-29T14:20:58.267Z,12.63
2022-11-29T14:23:50.079Z,12.67
2022-11-29T14:26:32.398Z,12.66
2022-11-29T14:29:48.131Z,12.52
2022-11-29T14:32:23.691Z,12.48
2022-11-29T14:35:03.463Z,12.53
2022-11-29T14:37:53.664Z,12.40
2022-11-29T14:40:37.005Z,12.39
2022-11-29T14:43:21.951Z,12.34
2022-11-29T14:46:24.711Z,12.34
2022-11-29T14:49:04.084Z,12.33
2022-11-29T14:51:37.516Z,12.32
2022-11-29T14:54:18.354Z,12.29
2022-11-29T14:56:51.308Z,12.26
2022-11-29T14:59:42.767Z,12.25
2022-11-29T15:02:35.970Z,12.18
2022-11-29T15:05:17.210Z,12.17
2022-11-29T15:07:57.882Z,12.22
2022-11-29T15:10:34.698Z,12.18
2022-11-29T15:13:10.829Z,12.10
2022-11-29T15:16:04.285Z,12.06
2022-11-29T15:19:17.686Z,12.14
2022-11-29T15:21:59.183Z,12.14
2022-11-29T15:24:51.149Z,12.14
2022-11-29T15:27:27.198Z,12.15
2022-11-29T15:30:10.098Z,12.17
2022-11-29T15:32:45.682Z,12.16
2022-11-29T15:35:21.049Z,12.15
2022-11-29T15:38:00.180Z,12.16
2022-11-29T15:40:43.344Z,12.16
2022-11-29T15:43:28.656Z,12.11
2022-11-29T15:46:02.242Z,12.12
2022-11-29T15:48:35.911Z,12.09
2022-11-29T15:51:30.422Z,12.08
2022-11-29T15:54:23.444Z,12.08
2022-11-29T15:57:03.955Z,11.96
2022-11-29T15:59:49.209Z,11.89
2022-11-29T16:02:28.061Z,11.68
2022-11-29T16:05:12.719Z,11.67
2022-11-29T16:07:51.094Z,11.72
2022-11-29T16:10:35.198Z,11.70
2022-11-29T16:13:37.173Z,11.63
2022-11-29T16:16:18.021Z,11.54
2022-11-29T16:18:52.365Z,11.51
2022-11-29T16:21:33.583Z,11.50
2022-11-29T16:24:23.421Z,11.52
2022-11-29T16:27:02.300Z,11.52
2022-11-29T16:29:45.153Z,11.58
2022-11-29T16:32:27.679Z,11.58
2022-11-29T16:35:08.412Z,11.47
2022-11-29T16:38:10.704Z,11.34
2022-11-29T16:41:04.863Z,11.38
2022-11-29T16:43:58.336Z,11.26
2022-11-29T16:46:40.853Z,11.25
2022-11-29T16:49:33.875Z,11.20
2022-11-29T16:52:43.421Z,11.07
2022-11-29T16:55:20.422Z,11.13
2022-11-29T16:57:57.145Z,10.94
2022-11-29T17:00:34.488Z,10.99
2022-11-29T17:03:07.669Z,11.00
2022-11-29T17:05:51.655Z,10.93
2022-11-29T17:08:25.850Z,10.95
2022-11-29T17:10:59.249Z,11.01
2022-11-29T17:13:34.799Z,10.85
2022-11-29T17:16:44.014Z,10.88
2022-11-29T17:19:24.031Z,10.88
2022-11-29T17:21:57.126Z,10.78
2022-11-29T17:24:29.762Z,10.75
2022-11-29T17:27:05.289Z,10.81
2022-11-29T17:29:42.238Z,10.74
2022-11-29T17:32:26.458Z,10.68
2022-11-29T17:35:00.107Z,10.68
2022-11-29T17:37:33.686Z,10.68
2022-11-29T17:40:08.015Z,10.65
2022-11-29T17:42:41.284Z,10.63
2022-11-29T17:45:15.878Z,10.66
2022-11-29T17:47:51.620Z,10.63
2022-11-29T17:50:24.587Z,10.66
2022-11-29T17:52:57.381Z,10.69
2022-11-29T17:55:30.401Z,10.61
2022-11-29T17:58:03.189Z,10.71
2022-11-29T18:00:37.621Z,10.93
2022-11-29T18:03:10.951Z,10.75
2022-11-29T18:05:49.570Z,10.68
2022-11-29T18:08:22.891Z,10.59
2022-11-29T18:11:05.452Z,10.59
2022-11-29T18:13:38.888Z,10.60
2022-11-29T18:16:14.769Z,10.61
2022-11-29T18:18:48.308Z,10.55
2022-11-29T18:21:21.345Z,10.55
2022-11-29T18:23:55.099Z,10.51
2022-11-29T18:26:30.524Z,10.54
2022-11-29T18:29:03.687Z,10.49
2022-11-29T18:31:41.136Z,10.48
2022-11-29T18:34:15.525Z,10.32
2022-11-29T18:36:49.692Z,10.34
2022-11-29T18:39:27.201Z,10.38
2022-11-29T18:42:01.188Z,10.33
2022-11-29T18:44:34.639Z,10.29
2022-11-29T18:47:11.084Z,10.30
2022-11-29T18:49:44.428Z,10.31
2022-11-29T18:52:17.360Z,10.23
2022-11-29T18:54:52.033Z,10.26
2022-11-29T18:57:25.223Z,10.27
2022-11-29T18:59:58.637Z,10.24
2022-11-29T19:02:33.132Z,10.32
2022-11-29T19:05:06.650Z,10.34
2022-11-29T19:07:39.890Z,10.40
2022-11-29T19:10:13.961Z,10.32
2022-11-29T19:12:47.351Z,10.37
2022-11-29T19:15:20.689Z,10.36
2022-11-29T19:17:56.004Z,10.35
2022-11-29T19:20:29.216Z,10.40
2022-11-29T19:23:02.369Z,10.37
2022-11-29T19:25:36.630Z,10.41
2022-11-29T19:28:14.253Z,10.45
2022-11-29T19:30:56.179Z,10.45
2022-11-29T19:33:30.709Z,10.45
2022-11-29T19:36:08.645Z,10.43
2022-11-29T19:38:42.003Z,10.40
2022-11-29T19:41:16.725Z,10.47
2022-11-29T19:43:50.166Z,10.43
2022-11-29T19:46:25.161Z,10.44
2022-11-29T19:49:00.925Z,10.52
2022-11-29T19:51:34.524Z,10.54
2022-11-29T19:54:10.651Z,10.45
2022-11-29T19:56:50.825Z,10.48
2022-11-29T19:59:31.499Z,10.53
2022-11-29T20:02:08.670Z,10.51
2022-11-29T20:04:43.616Z,10.53
2022-11-29T20:07:17.372Z,10.44
2022-11-29T20:09:50.800Z,10.56
2022-11-29T20:12:27.289Z,10.57
2022-11-29T20:15:01.127Z,10.62
2022-11-29T20:17:34.640Z,10.66
2022-11-29T20:20:11.525Z,10.70
2022-11-29T20:22:46.411Z,10.65
2022-11-29T20:25:24.820Z,10.59
2022-11-29T20:27:58.353Z,10.62
2022-11-29T20:34:53.741Z,10.62
2022-11-29T20:37:52.279Z,10.59
2022-11-29T20:40:33.397Z,10.64
2022-11-29T20:43:17.432Z,10.66
2022-11-29T20:45:51.174Z,10.72
2022-11-29T20:48:24.664Z,10.67
2022-11-29T20:51:03.591Z,10.75
2022-11-29T20:53:42.688Z,10.68
2022-11-29T20:56:15.944Z,10.65
2022-11-29T20:58:48.929Z,10.67
2022-11-29T21:01:22.751Z,10.66
2022-11-29T21:03:59.165Z,10.65
2022-11-29T21:06:34.570Z,10.70
2022-11-29T21:09:09.319Z,10.69
2022-11-29T21:11:45.880Z,10.65
2022-11-29T21:14:19.572Z,10.70
2022-11-29T21:16:53.742Z,10.65
2022-11-29T21:19:28.136Z,10.65
2022-11-29T21:22:09.469Z,10.69
2022-11-29T21:24:51.679Z,10.72
2022-11-29T21:27:30.097Z,10.75
2022-11-29T21:30:06.555Z,10.65
2022-11-29T21:32:40.187Z,10.73
2022-11-29T21:35:13.175Z,10.77
2022-11-29T21:37:46.409Z,10.74
2022-11-29T21:40:21.097Z,10.73
2022-11-29T21:42:54.478Z,10.76
2022-11-29T21:45:27.367Z,10.71
2022-11-29T21:48:00.555Z,10.74
2022-11-29T21:50:33.223Z,10.77
2022-11-29T21:53:06.317Z,10.77
2022-11-29T21:55:40.460Z,10.70
2022-11-29T21:58:13.301Z,10.76
2022-11-29T22:00:46.141Z,10.72
2022-11-29T22:03:18.933Z,10.67
2022-11-29T22:05:52.096Z,10.76
2022-11-29T22:08:24.834Z,10.70
2022-11-29T22:11:03.621Z,10.69
2022-11-29T22:13:36.776Z,10.72
2022-11-29T22:16:11.430Z,10.71
2022-11-29T22:18:44.827Z,10.75
2022-11-29T22:21:17.724Z,10.73
2022-11-29T22:23:50.483Z,10.71
2022-11-29T22:26:24.880Z,10.78
2022-11-29T22:28:58.224Z,10.70
2022-11-29T22:31:31.452Z,10.75
2022-11-29T22:34:04.439Z,10.75
2022-11-29T22:36:38.827Z,10.62
2022-11-29T22:39:12.157Z,10.65
2022-11-29T22:41:52.296Z,10.64
2022-11-29T22:44:26.974Z,10.61
2022-11-29T22:46:59.914Z,10.56
2022-11-29T22:49:33.548Z,10.60
2022-11-29T22:52:06.652Z,10.60
2022-11-29T22:54:40.294Z,10.67
2022-11-29T22:57:14.528Z,10.65
2022-11-29T22:59:48.059Z,10.63
2022-11-29T23:02:21.128Z,10.55
2022-11-29T23:04:54.252Z,10.63
2022-11-29T23:07:27.304Z,10.65
2022-11-29T23:10:00.695Z,10.68
2022-11-29T23:12:35.472Z,10.63
2022-11-29T23:15:08.754Z,10.64
2022-11-29T23:17:41.991Z,10.66
2022-11-29T23:20:15.230Z,10.68
2022-11-29T23:22:48.469Z,10.62
2022-11-29T23:25:24.087Z,10.64
2022-11-29T23:27:58.409Z,10.62
2022-11-29T23:30:31.760Z,10.54
2022-11-29T23:33:04.669Z,10.62
2022-11-29T23:35:37.962Z,10.72
2022-11-29T23:38:11.370Z,10.67
2022-11-29T23:40:45.938Z,10.57
2022-11-29T23:43:21.701Z,10.63
2022-11-29T23:45:54.827Z,10.66
2022-11-29T23:48:28.006Z,10.71
2022-11-29T23:51:00.991Z,10.59
2022-11-29T23:53:33.701Z,10.59
2022-11-29T23:56:09.131Z,10.69
2022-11-29T23:58:43.781Z,10.63
